Time;durP1;ratioP1;P1;durP2;ratioP2;P2;SDS_P1;SDS_P2;PMS_P1;PMS_P2;Temp;Humidity;BMP_temperature;BMP_pressure;BME280_temperature;BME280_humidity;BME280_pressure;Samples;Min_cycle;Max_cycle;Signal;HPM_P1;HPM_P2
2022/11/11 00:01:14;;;;;;;3.97;3.20;;;2.80;99.90;;;;;;4236419;28;20185;-66
2022/11/11 00:03:15;;;;;;;7.73;3.20;;;2.80;99.90;;;;;;4226999;28;20676;-65
2022/11/11 00:05:16;;;;;;;4.97;2.90;;;2.80;99.90;;;;;;4226941;28;21116;-66
2022/11/11 00:07:17;;;;;;;4.57;2.87;;;2.80;99.90;;;;;;4228541;28;20455;-66
2022/11/11 00:09:18;;;;;;;4.40;2.77;;;2.80;99.90;;;;;;4228412;28;20822;-66
2022/11/11 00:11:19;;;;;;;5.30;2.97;;;2.80;99.90;;;;;;4227151;28;20190;-66
2022/11/11 00:13:20;;;;;;;4.03;2.90;;;2.80;99.90;;;;;;4227827;28;20275;-66
2022/11/11 00:15:20;;;;;;;3.67;3.20;;;2.80;99.90;;;;;;4217273;28;20520;-66
2022/11/11 00:26:43;;;;;;;4.77;2.90;;;2.80;99.90;;;;;;4213378;28;20482;-66
2022/11/11 00:28:43;;;;;;;3.63;2.80;;;2.70;99.90;;;;;;4214296;28;20915;-66
2022/11/11 00:30:45;;;;;;;4.47;2.50;;;2.70;99.90;;;;;;4213929;28;20252;-66
2022/11/11 00:32:45;;;;;;;3.03;2.60;;;2.70;99.90;;;;;;4214332;28;20669;-66
2022/11/11 00:35:52;;;;;;;3.63;2.50;;;2.70;99.90;;;;;;4214241;28;20472;-66
2022/11/11 00:37:06;;;;;;;4.07;3.30;;;2.70;99.90;;;;;;4213998;28;20192;-66
2022/11/11 00:39:07;;;;;;;5.60;2.73;;;2.70;99.90;;;;;;4214055;28;20924;-65
2022/11/11 00:41:09;;;;;;;6.93;2.93;;;2.70;99.90;;;;;;4213490;28;20541;-66
2022/11/11 00:43:10;;;;;;;3.20;2.60;;;2.70;99.90;;;;;;4214066;28;20171;-66
2022/11/11 00:45:11;;;;;;;26.10;5.97;;;2.60;99.90;;;;;;4214142;28;20428;-66
2022/11/11 00:51:49;;;;;;;8.27;2.93;;;2.70;99.90;;;;;;4213384;28;20524;-66
2022/11/11 00:53:50;;;;;;;4.03;2.80;;;2.70;99.90;;;;;;4212335;28;20491;-66
2022/11/11 00:55:51;;;;;;;4.20;2.70;;;2.70;99.90;;;;;;4213751;28;20179;-66
2022/11/11 00:57:52;;;;;;;3.83;3.10;;;2.70;99.90;;;;;;4212415;28;20192;-66
2022/11/11 00:59:52;;;;;;;5.13;3.37;;;2.70;99.90;;;;;;4213563;28;20437;-65
2022/11/11 01:01:53;;;;;;;5.10;2.90;;;2.80;99.90;;;;;;4213084;28;20262;-67
2022/11/11 01:03:54;;;;;;;3.63;2.60;;;2.90;99.90;;;;;;4219993;28;20184;-66
2022/11/11 01:06:00;;;;;;;5.77;3.30;;;3.00;99.90;;;;;;4230720;28;20257;-66
2022/11/11 01:08:00;;;;;;;5.60;2.43;;;3.00;99.90;;;;;;4246384;27;20187;-66
2022/11/11 01:10:01;;;;;;;4.13;2.73;;;2.90;99.90;;;;;;4230417;28;20433;-66
2022/11/11 01:12:02;;;;;;;4.20;2.90;;;2.90;99.90;;;;;;4229741;28;20270;-66
2022/11/11 01:14:03;;;;;;;3.13;2.30;;;2.80;99.90;;;;;;4230335;28;20219;-66
2022/11/11 01:16:12;;;;;;;5.57;2.60;;;2.80;99.90;;;;;;4230642;28;20268;-66
2022/11/11 01:18:17;;;;;;;3.80;2.33;;;2.80;99.90;;;;;;4229378;28;20660;-65
2022/11/11 01:20:18;;;;;;;3.47;2.13;;;2.70;99.90;;;;;;4228486;28;20469;-67
2022/11/11 01:22:18;;;;;;;6.20;2.50;;;2.70;99.90;;;;;;4217168;28;20429;-65
2022/11/11 01:24:19;;;;;;;3.13;2.37;;;2.60;99.90;;;;;;4219612;28;20191;-64
2022/11/11 01:26:23;;;;;;;6.83;3.37;;;2.50;99.90;;;;;;4225506;28;20210;-67
2022/11/11 01:28:24;;;;;;;5.20;2.37;;;2.50;99.90;;;;;;4213994;28;20228;-65
2022/11/11 01:30:25;;;;;;;3.27;2.00;;;2.50;99.90;;;;;;4211985;28;20899;-67
2022/11/11 01:32:25;;;;;;;3.87;2.47;;;2.50;99.90;;;;;;4213113;28;20183;-65
2022/11/11 01:34:26;;;;;;;3.90;2.47;;;2.50;99.90;;;;;;4212776;28;20235;-68
2022/11/11 01:36:27;;;;;;;2.60;2.07;;;2.50;99.90;;;;;;4212347;28;20168;-68
2022/11/11 01:38:28;;;;;;;2.27;1.90;;;2.50;99.90;;;;;;4213495;28;20949;-67
2022/11/11 01:40:29;;;;;;;4.63;2.47;;;2.50;99.90;;;;;;4213306;28;20203;-64
2022/11/11 01:42:29;;;;;;;5.10;2.80;;;2.50;99.90;;;;;;4213125;28;20187;-66
2022/11/11 01:44:45;;;;;;;4.50;2.60;;;2.50;99.90;;;;;;4213438;28;20179;-66
2022/11/11 01:46:53;;;;;;;5.30;2.50;;;2.60;99.90;;;;;;4213323;28;20185;-65
2022/11/11 01:49:20;;;;;;;4.00;2.53;;;2.60;99.90;;;;;;4195052;28;20430;-65
2022/11/11 01:51:33;;;;;;;3.50;2.50;;;2.60;99.90;;;;;;4212688;28;20440;-65
2022/11/11 01:53:34;;;;;;;3.67;2.33;;;2.50;99.90;;;;;;4211717;28;20421;-65
2022/11/11 01:55:35;;;;;;;3.60;2.20;;;2.50;99.90;;;;;;4213176;28;20431;-65
2022/11/11 01:57:52;;;;;;;6.23;2.23;;;2.50;99.90;;;;;;4211898;28;20167;-65
2022/11/11 01:59:59;;;;;;;3.23;1.90;;;2.50;99.90;;;;;;4213152;28;20674;-65
2022/11/11 02:02:10;;;;;;;3.60;2.50;;;2.50;99.90;;;;;;4212475;28;20467;-65
2022/11/11 02:06:32;;;;;;;5.83;2.70;;;2.60;99.90;;;;;;4212745;28;20992;-66
2022/11/11 02:08:37;;;;;;;2.90;1.90;;;2.50;99.90;;;;;;4211601;28;20425;-65
2022/11/11 02:10:42;;;;;;;5.10;2.40;;;2.50;99.90;;;;;;4212295;28;20847;-66
2022/11/11 02:15:05;;;;;;;4.67;2.60;;;2.40;99.90;;;;;;4212557;28;20464;-66
2022/11/11 02:17:15;;;;;;;3.83;2.20;;;2.50;99.90;;;;;;4211223;28;20426;-66
2022/11/11 02:19:24;;;;;;;3.40;2.27;;;2.50;99.90;;;;;;4212666;28;20442;-66
2022/11/11 02:21:35;;;;;;;2.60;1.87;;;2.40;99.90;;;;;;4210536;28;20429;-66
2022/11/11 02:23:51;;;;;;;4.83;2.17;;;2.50;99.90;;;;;;4211065;28;20437;-66
2022/11/11 02:25:54;;;;;;;4.57;2.43;;;2.50;99.90;;;;;;4212414;28;20413;-66
2022/11/11 02:28:00;;;;;;;4.77;2.20;;;2.40;99.90;;;;;;4211105;28;21222;-67
2022/11/11 02:30:04;;;;;;;6.83;2.23;;;2.40;99.90;;;;;;4211114;28;20445;-66
2022/11/11 02:32:04;;;;;;;3.23;1.80;;;2.50;99.90;;;;;;4210413;28;20497;-66
2022/11/11 02:34:05;;;;;;;4.97;2.40;;;2.50;99.90;;;;;;4212245;28;20951;-66
2022/11/11 02:36:10;;;;;;;5.23;2.27;;;2.50;99.90;;;;;;4212248;28;20650;-66
2022/11/11 02:38:11;;;;;;;16.77;3.50;;;2.50;99.90;;;;;;4212351;28;20187;-66
2022/11/11 02:40:22;;;;;;;8.30;2.67;;;2.60;99.90;;;;;;4210295;28;20481;-66
2022/11/11 02:42:23;;;;;;;14.17;2.90;;;2.60;99.90;;;;;;4227941;28;20255;-65
2022/11/11 02:44:25;;;;;;;13.83;2.90;;;2.70;99.90;;;;;;4211180;28;20569;-65
2022/11/11 02:46:26;;;;;;;51.67;5.20;;;2.70;99.90;;;;;;4212232;28;20433;-66
2022/11/11 02:48:27;;;;;;;28.90;4.40;;;2.90;99.90;;;;;;4212260;28;21027;-66
2022/11/11 02:50:27;;;;;;;10.10;3.13;;;2.90;99.90;;;;;;4211559;28;20544;-66
2022/11/11 02:52:28;;;;;;;15.57;4.17;;;2.90;99.90;;;;;;4212152;28;20427;-66
2022/11/11 02:54:29;;;;;;;4.37;2.30;;;2.90;99.90;;;;;;4210788;28;20219;-66
2022/11/11 02:58:49;;;;;;;3.90;2.60;;;2.90;99.90;;;;;;4212042;28;20174;-67
2022/11/11 03:00:49;;;;;;;4.17;2.17;;;2.90;99.90;;;;;;4211316;28;20440;-66
2022/11/11 03:02:50;;;;;;;4.87;2.90;;;2.80;99.90;;;;;;4211928;28;20197;-66
2022/11/11 03:04:51;;;;;;;3.63;2.60;;;2.70;99.90;;;;;;4211928;28;20175;-65
2022/11/11 03:06:51;;;;;;;4.97;2.23;;;2.70;99.90;;;;;;4212150;28;20178;-66
2022/11/11 03:08:52;;;;;;;2.50;1.90;;;2.70;99.90;;;;;;4211844;28;20651;-66
2022/11/11 03:10:52;;;;;;;3.00;1.70;;;2.60;99.90;;;;;;4211172;28;20565;-66
2022/11/11 03:12:53;;;;;;;3.17;2.20;;;2.70;99.90;;;;;;4211918;28;20175;-66
2022/11/11 03:14:54;;;;;;;2.90;2.10;;;2.50;99.90;;;;;;4225623;28;20297;-66
2022/11/11 03:19:31;;;;;;;2.10;1.70;;;2.60;99.90;;;;;;4192927;28;20233;-66
2022/11/11 03:21:31;;;;;;;2.30;1.90;;;2.60;99.90;;;;;;4211537;28;20459;-67
2022/11/11 03:23:32;;;;;;;2.97;1.73;;;2.50;99.90;;;;;;4228810;28;20202;-67
2022/11/11 03:25:36;;;;;;;3.50;1.93;;;2.50;99.90;;;;;;4234888;28;20173;-66
2022/11/11 03:27:37;;;;;;;1.83;1.53;;;2.50;99.90;;;;;;4238687;28;20224;-66
2022/11/11 03:29:38;;;;;;;3.30;1.83;;;2.50;99.90;;;;;;4230425;28;20433;-66
2022/11/11 03:31:38;;;;;;;3.27;2.10;;;2.50;99.90;;;;;;4221216;28;20225;-67
2022/11/11 03:33:39;;;;;;;3.67;2.20;;;2.50;99.90;;;;;;4228681;28;20183;-67
2022/11/11 03:35:41;;;;;;;3.60;2.33;;;2.50;99.90;;;;;;4229494;28;20660;-66
2022/11/11 03:40:01;;;;;;;4.37;2.03;;;2.50;99.90;;;;;;4228987;28;20443;-66
2022/11/11 03:42:02;;;;;;;3.77;2.37;;;2.60;99.90;;;;;;4228691;28;20499;-67
2022/11/11 03:44:02;;;;;;;2.57;1.93;;;2.60;99.90;;;;;;4229054;28;20538;-66
2022/11/11 03:46:04;;;;;;;4.33;1.93;;;2.60;99.90;;;;;;4228838;28;20681;-66
2022/11/11 03:48:06;;;;;;;2.40;1.93;;;2.60;99.90;;;;;;4227321;28;20190;-66
2022/11/11 03:50:07;;;;;;;2.23;1.73;;;2.70;99.90;;;;;;4228756;28;20474;-67
2022/11/11 03:52:07;;;;;;;2.57;1.80;;;2.60;99.90;;;;;;4243611;28;20461;-67
2022/11/11 03:54:08;;;;;;;2.23;1.77;;;2.60;99.90;;;;;;4228503;28;20995;-66
2022/11/11 03:56:09;;;;;;;5.53;1.80;;;2.50;99.90;;;;;;4228768;28;20177;-67
2022/11/11 03:58:10;;;;;;;2.17;1.60;;;2.50;99.90;;;;;;4231827;28;20211;-67
2022/11/11 04:00:14;;;;;;;8.13;2.00;;;2.40;99.90;;;;;;4231920;28;20210;-66
2022/11/11 04:11:40;;;;;;;2.67;1.83;;;2.40;99.90;;;;;;4230706;28;20882;-67
2022/11/11 04:16:05;;;;;;;3.70;2.00;;;2.40;99.90;;;;;;4231521;28;20414;-66
2022/11/11 04:18:05;;;;;;;4.37;1.77;;;2.40;99.90;;;;;;4231526;28;20419;-67
2022/11/11 04:22:26;;;;;;;2.47;1.93;;;2.40;99.90;;;;;;4231555;28;20229;-67
2022/11/11 04:26:46;;;;;;;3.63;2.20;;;2.40;99.90;;;;;;4231247;28;20198;-66
2022/11/11 04:31:06;;;;;;;2.50;1.80;;;2.40;99.90;;;;;;4230533;28;20213;-67
2022/11/11 04:33:07;;;;;;;3.17;2.17;;;2.40;99.90;;;;;;4231075;28;20421;-67
2022/11/11 04:35:12;;;;;;;3.10;2.00;;;2.40;99.90;;;;;;4230968;28;20214;-67
2022/11/11 04:37:14;;;;;;;3.50;2.27;;;2.50;99.90;;;;;;4231148;28;20923;-67
2022/11/11 04:41:34;;;;;;;2.67;1.97;;;2.50;99.90;;;;;;4230412;28;20421;-67
2022/11/11 04:45:26;;;;;;;3.20;2.17;;;2.50;99.90;;;;;;4230795;28;20442;-68
2022/11/11 04:45:59;;;;;;;2.83;2.20;;;2.40;99.90;;;;;;4230835;28;20837;-66
2022/11/11 04:48:08;;;;;;;4.07;2.30;;;2.50;99.90;;;;;;4231080;28;20430;-66
2022/11/11 04:50:09;;;;;;;3.67;2.00;;;2.50;99.90;;;;;;4230940;28;20448;-66
2022/11/11 04:52:25;;;;;;;3.60;2.27;;;2.50;99.90;;;;;;4230595;28;20432;-67
2022/11/11 04:54:25;;;;;;;3.87;2.17;;;2.40;99.90;;;;;;4230911;28;20218;-67
2022/11/11 04:58:45;;;;;;;2.87;2.17;;;2.40;99.90;;;;;;4230745;28;20216;-66
2022/11/11 05:00:46;;;;;;;2.10;1.80;;;2.50;99.90;;;;;;4229982;28;20432;-67
2022/11/11 05:05:06;;;;;;;3.50;1.70;;;2.40;99.90;;;;;;4230680;28;20232;-67
2022/11/11 05:09:26;;;;;;;5.63;2.03;;;2.40;99.90;;;;;;4230956;28;20283;-67
2022/11/11 05:11:32;;;;;;;2.50;1.87;;;2.40;99.90;;;;;;4230566;28;20421;-67
2022/11/11 05:22:49;;;;;;;2.07;1.67;;;2.50;99.90;;;;;;4213589;28;20475;-65
2022/11/11 05:27:10;;;;;;;1.73;1.50;;;2.40;99.90;;;;;;4218816;28;20198;-65
2022/11/11 05:29:10;;;;;;;2.47;1.90;;;2.60;99.90;;;;;;4217982;28;20433;-65
2022/11/11 05:31:11;;;;;;;2.93;2.10;;;2.60;99.90;;;;;;4213222;28;20654;-65
2022/11/11 05:33:12;;;;;;;4.40;2.23;;;2.60;99.90;;;;;;4213835;28;20290;-65
2022/11/11 05:35:13;;;;;;;5.83;2.90;;;2.60;99.90;;;;;;4213134;28;20217;-65
2022/11/11 05:37:14;;;;;;;5.43;2.57;;;2.60;99.90;;;;;;4213281;28;20212;-64
2022/11/11 05:39:15;;;;;;;5.90;2.97;;;2.60;99.90;;;;;;4213991;28;20422;-65
2022/11/11 05:41:16;;;;;;;8.90;3.50;;;2.60;99.90;;;;;;4234775;27;20791;-65
2022/11/11 05:43:16;;;;;;;4.53;3.03;;;2.60;99.90;;;;;;4238489;27;20184;-65
2022/11/11 05:45:17;;;;;;;5.47;2.97;;;2.70;99.90;;;;;;4243012;27;20702;-65
2022/11/11 05:47:18;;;;;;;3.57;2.63;;;2.70;99.90;;;;;;4246936;27;20860;-66
2022/11/11 05:49:18;;;;;;;4.30;2.63;;;2.80;99.90;;;;;;4247150;27;20199;-66
2022/11/11 05:51:26;;;;;;;3.33;2.50;;;2.90;99.90;;;;;;4246163;27;20183;-66
2022/11/11 05:53:27;;;;;;;4.33;2.30;;;3.00;99.90;;;;;;4247022;27;20200;-67
2022/11/11 05:55:28;;;;;;;3.00;2.60;;;3.00;99.90;;;;;;4246597;27;20467;-66
2022/11/11 05:57:29;;;;;;;9.20;3.90;;;3.00;99.90;;;;;;4246753;27;20181;-66
2022/11/11 05:59:29;;;;;;;3.97;3.00;;;3.00;99.90;;;;;;4246606;27;20727;-67
2022/11/11 06:01:30;;;;;;;3.40;2.60;;;3.00;99.90;;;;;;4245996;27;20180;-66
2022/11/11 06:03:31;;;;;;;4.90;3.00;;;3.00;99.90;;;;;;4246643;27;20186;-66
2022/11/11 06:05:32;;;;;;;3.80;2.93;;;3.00;99.90;;;;;;4246374;27;20657;-66
2022/11/11 06:07:33;;;;;;;5.23;3.30;;;3.00;99.90;;;;;;4246404;27;20190;-67
2022/11/11 06:09:33;;;;;;;3.30;2.83;;;3.00;99.90;;;;;;4245264;27;20255;-66
2022/11/11 06:11:34;;;;;;;3.07;2.50;;;2.90;99.90;;;;;;4244591;27;20424;-66
2022/11/11 06:13:35;;;;;;;9.70;3.10;;;2.90;99.90;;;;;;4246282;27;20213;-66
2022/11/11 06:15:38;;;;;;;3.03;2.47;;;2.90;99.90;;;;;;4246575;27;20234;-66
2022/11/11 06:17:38;;;;;;;2.77;2.57;;;2.90;99.90;;;;;;4246292;27;20186;-65
2022/11/11 06:19:39;;;;;;;3.43;2.37;;;2.80;99.90;;;;;;4244487;27;20985;-66
2022/11/11 06:21:57;;;;;;;3.27;2.67;;;2.80;99.90;;;;;;4245596;27;20553;-65
2022/11/11 06:23:58;;;;;;;3.20;2.50;;;2.80;99.90;;;;;;4246233;27;20201;-66
2022/11/11 06:26:11;;;;;;;4.63;2.40;;;2.70;99.90;;;;;;4246316;27;20430;-65
2022/11/11 06:28:13;;;;;;;6.13;3.47;;;2.70;99.90;;;;;;4246262;27;20184;-66
2022/11/11 06:30:14;;;;;;;6.97;2.90;;;2.60;99.90;;;;;;4245711;27;20443;-65
2022/11/11 06:32:14;;;;;;;5.13;2.53;;;2.60;99.90;;;;;;4246425;27;20454;-65
2022/11/11 06:34:15;;;;;;;4.43;2.53;;;2.60;99.90;;;;;;4246178;27;20462;-65
2022/11/11 06:36:20;;;;;;;2.80;2.40;;;2.60;99.90;;;;;;4246224;27;20193;-65
2022/11/11 06:38:22;;;;;;;5.80;3.23;;;2.60;99.90;;;;;;4244866;27;20408;-66
2022/11/11 06:40:23;;;;;;;3.90;2.00;;;2.60;99.90;;;;;;4245196;27;20534;-66
2022/11/11 06:42:23;;;;;;;6.23;3.90;;;2.60;99.90;;;;;;4244703;27;20472;-66
2022/11/11 06:44:24;;;;;;;6.50;3.80;;;2.60;99.90;;;;;;4245967;27;20918;-66
2022/11/11 06:46:25;;;;;;;17.93;7.03;;;2.70;99.90;;;;;;4246040;27;20193;-66
2022/11/11 06:48:27;;;;;;;53.03;5.57;;;2.70;99.90;;;;;;4246215;27;20623;-66
2022/11/11 06:50:28;;;;;;;21.07;5.57;;;2.90;99.90;;;;;;4227220;28;20512;-65
2022/11/11 06:52:29;;;;;;;44.57;5.80;;;3.00;99.90;;;;;;4246014;27;20476;-66
2022/11/11 06:54:30;;;;;;;12.77;5.10;;;3.10;99.90;;;;;;4227694;28;20758;-65
2022/11/11 06:56:30;;;;;;;6.00;3.83;;;3.30;99.90;;;;;;4246027;27;20538;-65
2022/11/11 06:58:31;;;;;;;6.67;3.87;;;3.40;99.90;;;;;;4246080;27;20183;-66
2022/11/11 07:00:33;;;;;;;8.90;4.23;;;3.50;99.90;;;;;;4235230;27;20252;-66
2022/11/11 07:02:34;;;;;;;5.03;3.20;;;3.50;99.90;;;;;;4228746;28;20175;-65
2022/11/11 07:04:34;;;;;;;4.17;2.80;;;3.60;99.90;;;;;;4227358;28;20424;-65
2022/11/11 07:06:35;;;;;;;4.80;3.30;;;3.70;99.90;;;;;;4227410;28;20641;-66
2022/11/11 07:08:36;;;;;;;10.60;5.50;;;3.80;99.90;;;;;;4228688;28;20574;-66
2022/11/11 07:10:40;;;;;;;7.60;4.63;;;3.80;99.90;;;;;;4227786;28;20203;-66
2022/11/11 07:12:41;;;;;;;9.07;4.70;;;3.90;99.90;;;;;;4228624;28;20659;-66
2022/11/11 07:14:42;;;;;;;7.50;4.20;;;4.00;99.90;;;;;;4228519;28;20473;-66
2022/11/11 07:16:42;;;;;;;11.80;7.40;;;4.10;99.90;;;;;;4227291;28;20176;-66
2022/11/11 07:18:43;;;;;;;9.13;5.40;;;4.20;99.90;;;;;;4228496;28;20626;-66
2022/11/11 07:20:44;;;;;;;7.87;5.20;;;4.30;99.90;;;;;;4222610;28;20190;-66
2022/11/11 07:22:45;;;;;;;10.87;4.93;;;4.30;99.90;;;;;;4211657;28;20173;-66
2022/11/11 07:24:45;;;;;;;8.00;5.10;;;4.30;99.90;;;;;;4211519;28;20954;-66
2022/11/11 07:26:46;;;;;;;9.00;5.57;;;4.30;99.90;;;;;;4211653;28;20180;-66
2022/11/11 07:28:49;;;;;;;8.57;5.73;;;4.40;99.90;;;;;;4216754;28;20209;-66
2022/11/11 07:30:50;;;;;;;9.77;6.27;;;4.40;99.90;;;;;;4214745;28;20362;-66
2022/11/11 07:32:52;;;;;;;5.67;4.60;;;4.50;99.90;;;;;;4215262;28;20424;-66
2022/11/11 07:34:53;;;;;;;6.83;4.03;;;4.60;99.90;;;;;;4214035;28;20285;-66
2022/11/11 07:36:54;;;;;;;7.80;4.87;;;4.70;99.90;;;;;;4215173;28;20420;-66
2022/11/11 07:38:54;;;;;;;8.57;4.20;;;4.70;99.90;;;;;;4215572;28;20183;-66
2022/11/11 07:40:55;;;;;;;7.90;4.43;;;4.70;99.90;;;;;;4213479;28;20205;-66
2022/11/11 07:42:56;;;;;;;6.03;4.10;;;4.70;99.90;;;;;;4215026;28;20190;-65
2022/11/11 07:44:56;;;;;;;5.33;3.50;;;4.80;99.90;;;;;;4215269;28;20566;-66
2022/11/11 07:46:57;;;;;;;4.97;3.40;;;4.90;99.90;;;;;;4215208;28;20177;-66
2022/11/11 07:48:57;;;;;;;4.33;2.60;;;5.00;99.90;;;;;;4214964;28;20178;-66
2022/11/11 07:50:59;;;;;;;3.20;2.30;;;5.00;99.90;;;;;;4214533;28;20183;-65
2022/11/11 07:53:00;;;;;;;4.27;2.73;;;5.10;99.90;;;;;;4214900;28;20182;-66
2022/11/11 07:55:00;;;;;;;6.60;2.80;;;5.20;99.90;;;;;;4214741;28;20574;-66
2022/11/11 07:57:01;;;;;;;4.23;2.60;;;5.30;99.90;;;;;;4214996;28;20312;-66
2022/11/11 07:59:02;;;;;;;6.60;2.97;;;5.30;99.90;;;;;;4213446;28;20221;-66
2022/11/11 08:01:02;;;;;;;3.50;2.50;;;5.50;99.90;;;;;;4214271;28;20261;-66
2022/11/11 08:03:03;;;;;;;11.43;5.17;;;5.60;99.90;;;;;;4214657;28;20266;-66
2022/11/11 08:05:04;;;;;;;26.97;15.60;;;5.60;99.90;;;;;;4214740;28;20188;-66
2022/11/11 08:07:05;;;;;;;26.77;14.90;;;5.60;99.90;;;;;;4214689;28;20171;-66
2022/11/11 08:09:05;;;;;;;14.57;9.20;;;5.70;99.90;;;;;;4214396;28;20198;-66
2022/11/11 08:11:06;;;;;;;21.80;12.27;;;5.90;99.90;;;;;;4213858;28;20178;-66
2022/11/11 08:15:30;;;;;;;19.37;10.77;;;6.20;99.90;;;;;;4214492;28;20218;-67
2022/11/11 08:17:37;;;;;;;13.13;7.47;;;6.40;99.90;;;;;;4213183;28;20790;-66
2022/11/11 08:19:38;;;;;;;8.07;5.47;;;6.60;99.90;;;;;;4214264;28;20195;-65
2022/11/11 08:21:38;;;;;;;9.17;5.90;;;6.60;99.90;;;;;;4212270;28;20471;-65
2022/11/11 08:23:39;;;;;;;8.53;5.77;;;6.80;99.90;;;;;;4213916;28;20557;-65
2022/11/11 08:25:40;;;;;;;9.30;5.83;;;7.00;99.90;;;;;;4213226;28;20198;-65
2022/11/11 08:27:41;;;;;;;7.57;5.50;;;7.10;99.90;;;;;;4213150;28;20262;-66
2022/11/11 08:29:42;;;;;;;8.63;5.60;;;7.10;99.90;;;;;;4213074;28;20306;-66
2022/11/11 08:31:42;;;;;;;7.73;5.00;;;7.20;99.90;;;;;;4212362;28;20926;-66
2022/11/11 08:33:43;;;;;;;6.60;4.80;;;7.40;99.90;;;;;;4212932;28;20545;-66
2022/11/11 08:35:44;;;;;;;6.60;5.03;;;7.40;99.90;;;;;;4213462;28;20166;-67
2022/11/11 08:37:44;;;;;;;6.67;4.90;;;7.60;99.90;;;;;;4213085;28;20237;-66
2022/11/11 08:39:45;;;;;;;4.77;4.20;;;7.70;99.90;;;;;;4213329;28;20191;-68
2022/11/11 08:41:46;;;;;;;5.63;4.10;;;7.60;99.90;;;;;;4212609;28;20168;-65
2022/11/11 08:43:52;;;;;;;5.67;3.70;;;7.60;99.90;;;;;;4220131;28;20877;-66
2022/11/11 08:45:53;;;;;;;10.03;6.80;;;7.50;99.90;;;;;;4227590;28;20230;-65
2022/11/11 08:47:53;;;;;;;28.43;16.73;;;7.50;99.90;;;;;;4219821;28;20207;-65
2022/11/11 08:49:54;;;;;;;17.40;12.03;;;7.70;99.90;;;;;;4222357;28;20656;-66
2022/11/11 08:51:55;;;;;;;26.13;17.70;;;8.00;99.90;;;;;;4220271;28;20928;-66
2022/11/11 08:53:55;;;;;;;27.33;15.80;;;8.30;99.90;;;;;;4221108;28;20188;-66
2022/11/11 08:55:56;;;;;;;20.07;13.47;;;8.70;99.90;;;;;;4213015;28;20178;-66
2022/11/11 08:57:59;;;;;;;19.67;11.37;;;9.00;99.90;;;;;;4212544;28;20186;-66
2022/11/11 08:59:59;;;;;;;14.10;9.00;;;9.20;99.90;;;;;;4231954;28;20694;-66
2022/11/11 09:02:00;;;;;;;16.00;9.80;;;9.40;99.90;;;;;;4238029;28;20178;-66
2022/11/11 09:04:01;;;;;;;13.07;9.00;;;9.70;99.90;;;;;;4236535;28;20188;-66
2022/11/11 09:06:01;;;;;;;15.63;8.73;;;9.80;99.90;;;;;;4238498;27;20207;-68
2022/11/11 09:08:06;;;;;;;12.40;9.50;;;9.90;99.90;;;;;;4236648;28;20793;-67
2022/11/11 09:10:07;;;;;;;13.40;7.93;;;9.80;99.80;;;;;;4228814;28;20193;-65
2022/11/11 09:12:08;;;;;;;9.83;6.73;;;9.90;99.90;;;;;;4232825;28;20234;-68
2022/11/11 09:14:09;;;;;;;13.13;7.70;;;10.10;99.90;;;;;;4230923;28;20224;-66
2022/11/11 09:16:10;;;;;;;11.97;7.43;;;10.20;99.70;;;;;;4235900;28;20179;-67
2022/11/11 09:18:10;;;;;;;17.13;7.20;;;10.30;99.90;;;;;;4237860;28;20880;-68
2022/11/11 09:20:11;;;;;;;11.70;7.37;;;10.60;99.90;;;;;;4234837;28;20194;-65
2022/11/11 09:22:12;;;;;;;10.47;6.83;;;10.80;99.90;;;;;;4237745;28;20165;-67
2022/11/11 09:24:12;;;;;;;12.03;6.87;;;11.00;99.90;;;;;;4199138;27;1072032;-66
2022/11/11 09:26:13;;;;;;;9.03;6.30;;;11.20;99.90;;;;;;4239286;27;20193;-66
2022/11/11 09:28:14;;;;;;;6.90;4.17;;;11.60;99.90;;;;;;4237473;27;20190;-66
2022/11/11 09:30:15;;;;;;;4.40;3.20;;;11.80;99.90;;;;;;4238706;28;20787;-67
2022/11/11 09:32:15;;;;;;;2.70;2.27;;;12.20;99.90;;;;;;4238877;28;20194;-66
2022/11/11 09:34:16;;;;;;;2.27;2.07;;;12.40;99.90;;;;;;4239398;27;20205;-67
2022/11/11 09:36:17;;;;;;;7.03;4.27;;;12.70;99.90;;;;;;4236905;27;20175;-67
2022/11/11 09:38:18;;;;;;;20.90;13.07;;;13.00;99.90;;;;;;4232648;27;20190;-67
2022/11/11 09:40:22;;;;;;;14.27;9.73;;;13.30;99.90;;;;;;4239095;27;20787;-67
2022/11/11 09:42:39;;;;;;;9.80;6.90;;;13.70;99.90;;;;;;4234711;27;20174;-67
2022/11/11 09:45:13;;;;;;;3.00;2.10;;;14.20;99.90;;;;;;4241554;27;20711;-67
2022/11/11 09:47:35;;;;;;;1.97;1.50;;;14.50;99.90;;;;;;4212998;27;20195;-67
2022/11/11 09:50:00;;;;;;;1.70;1.00;;;15.30;99.90;;;;;;4242453;27;20237;-66
2022/11/11 09:52:22;;;;;;;0.73;0.63;;;15.40;99.00;;;;;;4234962;27;20178;-66
2022/11/11 09:54:43;;;;;;;1.97;0.90;;;15.80;93.70;;;;;;4234550;27;20634;-67
2022/11/11 09:56:44;;;;;;;0.70;0.70;;;16.20;94.20;;;;;;4242924;27;20229;-67
2022/11/11 09:58:52;;;;;;;1.13;0.87;;;16.40;91.30;;;;;;4226728;27;20558;-67
2022/11/11 10:01:22;;;;;;;0.83;0.80;;;16.70;90.80;;;;;;4221645;27;20191;-67
2022/11/11 10:03:25;;;;;;;1.13;0.90;;;16.40;92.00;;;;;;4209568;27;20343;-67
2022/11/11 10:05:42;;;;;;;1.20;1.10;;;16.70;90.60;;;;;;4227072;28;20246;-67
2022/11/11 10:08:12;;;;;;;1.47;0.80;;;17.10;93.60;;;;;;4233738;27;20612;-68
2022/11/11 10:10:25;;;;;;;1.00;0.90;;;17.50;90.40;;;;;;4236279;27;20190;-67
2022/11/11 10:12:37;;;;;;;1.27;0.80;;;17.80;82.40;;;;;;4239987;27;20188;-67
2022/11/11 10:14:49;;;;;;;0.90;0.90;;;17.70;80.10;;;;;;4231568;27;20202;-67
2022/11/11 10:17:23;;;;;;;1.33;0.90;;;17.80;85.70;;;;;;4241898;27;20176;-67
2022/11/11 10:19:44;;;;;;;1.80;0.80;;;18.00;87.10;;;;;;4216303;27;20661;-67
2022/11/11 10:21:57;;;;;;;1.27;0.90;;;18.40;78.30;;;;;;4239813;27;20174;-67
2022/11/11 10:24:00;;;;;;;1.90;1.00;;;19.00;79.80;;;;;;4235249;27;20574;-67
2022/11/11 10:26:19;;;;;;;1.40;0.97;;;19.00;75.70;;;;;;4236823;27;20178;-67
2022/11/11 10:28:24;;;;;;;1.77;1.10;;;19.20;68.90;;;;;;4237630;27;20165;-67
2022/11/11 10:30:29;;;;;;;1.20;1.10;;;19.30;68.30;;;;;;4232725;27;20202;-67
2022/11/11 10:32:33;;;;;;;1.10;1.00;;;19.30;63.10;;;;;;4240319;27;20205;-67
2022/11/11 10:34:35;;;;;;;2.07;0.90;;;19.40;67.10;;;;;;4231835;27;20278;-67
2022/11/11 10:36:53;;;;;;;0.90;0.90;;;19.60;64.10;;;;;;4239770;27;20177;-67
2022/11/11 10:39:21;;;;;;;1.23;1.10;;;19.50;64.20;;;;;;4244303;27;20577;-67
2022/11/11 10:41:49;;;;;;;1.07;0.90;;;18.60;62.00;;;;;;4228341;28;20277;-67
2022/11/11 10:43:50;;;;;;;1.10;1.00;;;18.60;69.60;;;;;;4237820;27;20235;-67
2022/11/11 10:45:59;;;;;;;1.03;0.90;;;19.70;64.60;;;;;;4234368;27;20181;-66
2022/11/11 10:48:06;;;;;;;2.17;0.80;;;19.30;63.60;;;;;;4237864;27;20180;-67
2022/11/11 10:50:24;;;;;;;1.00;1.00;;;19.50;56.40;;;;;;4236528;27;20199;-67
2022/11/11 10:52:35;;;;;;;1.00;1.00;;;19.50;63.00;;;;;;4233124;27;20275;-67
2022/11/11 10:55:01;;;;;;;1.73;1.30;;;19.20;66.80;;;;;;4238918;27;20237;-66
2022/11/11 10:57:22;;;;;;;3.33;1.00;;;19.40;62.50;;;;;;4228110;27;20264;-67
2022/11/11 10:59:31;;;;;;;2.63;0.97;;;20.10;59.70;;;;;;4230581;27;20190;-68
2022/11/11 11:01:44;;;;;;;1.07;0.97;;;20.50;57.60;;;;;;4233292;27;20606;-68
2022/11/11 11:03:56;;;;;;;1.27;1.17;;;20.80;56.00;;;;;;4233546;27;20188;-69
2022/11/11 11:06:21;;;;;;;0.90;0.90;;;20.50;56.00;;;;;;4238776;27;20174;-70
2022/11/11 11:08:30;;;;;;;2.47;1.10;;;20.30;58.40;;;;;;4239036;27;20177;-69
2022/11/11 11:10:52;;;;;;;0.90;0.90;;;20.20;58.40;;;;;;4231630;27;20245;-69
2022/11/11 11:13:21;;;;;;;1.30;1.00;;;20.10;59.00;;;;;;4243688;28;20189;-70
2022/11/11 11:15:24;;;;;;;3.07;1.20;;;20.40;58.40;;;;;;4215116;27;20237;-70
2022/11/11 11:17:35;;;;;;;1.20;1.10;;;20.90;56.90;;;;;;4242592;28;20173;-69
2022/11/11 11:19:36;;;;;;;1.20;1.10;;;20.90;55.80;;;;;;4232555;28;20603;-68
2022/11/11 11:21:54;;;;;;;1.37;1.00;;;21.60;52.70;;;;;;4234780;28;20178;-67
2022/11/11 11:23:55;;;;;;;1.00;1.00;;;22.00;51.00;;;;;;4234831;28;20565;-68
2022/11/11 11:25:55;;;;;;;1.73;1.20;;;22.40;49.40;;;;;;4237333;28;20166;-69
2022/11/11 11:28:10;;;;;;;1.23;1.13;;;23.00;47.70;;;;;;4235057;28;20170;-69
2022/11/11 11:30:23;;;;;;;2.13;1.00;;;23.20;46.60;;;;;;4240234;28;20201;-69
2022/11/11 11:32:29;;;;;;;1.83;1.20;;;23.50;46.30;;;;;;4248849;28;20224;-67
2022/11/11 11:34:49;;;;;;;1.20;1.10;;;22.90;46.90;;;;;;4231868;28;20296;-68
2022/11/11 11:37:00;;;;;;;2.00;1.20;;;23.20;46.10;;;;;;4240135;28;20174;-67
2022/11/11 11:39:01;;;;;;;3.13;1.30;;;22.40;48.40;;;;;;4225512;28;20179;-68
2022/11/11 11:41:02;;;;;;;1.87;1.10;;;22.70;48.30;;;;;;4242561;28;20849;-69
2022/11/11 11:43:34;;;;;;;1.00;1.00;;;23.00;47.20;;;;;;4228896;28;20174;-69
2022/11/11 11:45:35;;;;;;;2.30;1.90;;;22.80;46.80;;;;;;4230884;28;20181;-68
2022/11/11 11:48:09;;;;;;;3.00;1.20;;;22.00;47.40;;;;;;4245111;27;20241;-68
2022/11/11 11:50:49;;;;;;;1.60;1.50;;;21.80;50.70;;;;;;4227800;28;20209;-68
2022/11/11 11:53:12;;;;;;;1.20;1.10;;;21.50;48.60;;;;;;4241330;28;20177;-68
2022/11/11 11:55:26;;;;;;;2.53;1.70;;;20.70;53.40;;;;;;4212545;28;20218;-66
2022/11/11 11:57:39;;;;;;;3.60;1.77;;;20.50;55.40;;;;;;4242192;27;20170;-68
2022/11/11 11:59:59;;;;;;;2.10;1.90;;;20.50;53.90;;;;;;4232492;28;20317;-68
2022/11/11 12:02:26;;;;;;;4.87;3.37;;;20.30;53.50;;;;;;4235669;28;20261;-67